sensor_id;sensor_type;location;lat;lon;timestamp;P1;durP1;ratioP1;P2;durP2;ratioP2
32946;SDS011;54465;51.230;22.504;2023-11-21T00:03:56;47.55;;;7.22;;
32946;SDS011;54465;51.230;22.504;2023-11-21T00:08:57;32.75;;;7.35;;
32946;SDS011;54465;51.230;22.504;2023-11-21T00:13:57;41.10;;;8.13;;
32946;SDS011;54465;51.230;22.504;2023-11-21T00:18:59;10.52;;;6.32;;
32946;SDS011;54465;51.230;22.504;2023-11-21T00:23:59;23.10;;;6.82;;
32946;SDS011;54465;51.230;22.504;2023-11-21T00:29:00;22.40;;;7.55;;
32946;SDS011;54465;51.230;22.504;2023-11-21T00:34:02;28.27;;;7.57;;
32946;SDS011;54465;51.230;22.504;2023-11-21T00:39:04;31.15;;;7.38;;
32946;SDS011;54465;51.230;22.504;2023-11-21T00:44:06;31.23;;;7.55;;
32946;SDS011;54465;51.230;22.504;2023-11-21T00:49:06;43.05;;;8.38;;
32946;SDS011;54465;51.230;22.504;2023-11-21T00:54:08;20.13;;;7.50;;
32946;SDS011;54465;51.230;22.504;2023-11-21T00:59:08;22.42;;;8.20;;
32946;SDS011;54465;51.230;22.504;2023-11-21T01:04:09;52.95;;;9.18;;
32946;SDS011;54465;51.230;22.504;2023-11-21T01:09:09;18.75;;;7.53;;
32946;SDS011;54465;51.230;22.504;2023-11-21T01:14:10;19.40;;;7.38;;
32946;SDS011;54465;51.230;22.504;2023-11-21T01:19:11;14.20;;;7.35;;
32946;SDS011;54465;51.230;22.504;2023-11-21T01:24:12;15.65;;;7.82;;
32946;SDS011;54465;51.230;22.504;2023-11-21T01:29:13;23.52;;;7.88;;
32946;SDS011;54465;51.230;22.504;2023-11-21T01:34:13;24.20;;;9.35;;
32946;SDS011;54465;51.230;22.504;2023-11-21T01:39:15;22.02;;;8.48;;
32946;SDS011;54465;51.230;22.504;2023-11-21T01:44:16;16.63;;;8.45;;
32946;SDS011;54465;51.230;22.504;2023-11-21T01:49:17;42.55;;;8.90;;
32946;SDS011;54465;51.230;22.504;2023-11-21T01:54:18;30.00;;;8.55;;
32946;SDS011;54465;51.230;22.504;2023-11-21T01:59:19;14.18;;;7.38;;
32946;SDS011;54465;51.230;22.504;2023-11-21T02:04:23;43.67;;;9.20;;
32946;SDS011;54465;51.230;22.504;2023-11-21T02:09:25;20.02;;;8.32;;
32946;SDS011;54465;51.230;22.504;2023-11-21T02:14:26;47.60;;;9.50;;
32946;SDS011;54465;51.230;22.504;2023-11-21T02:19:28;26.38;;;8.45;;
32946;SDS011;54465;51.230;22.504;2023-11-21T02:24:31;17.17;;;7.50;;
32946;SDS011;54465;51.230;22.504;2023-11-21T02:29:32;34.35;;;8.90;;
32946;SDS011;54465;51.230;22.504;2023-11-21T02:34:33;32.15;;;8.77;;
32946;SDS011;54465;51.230;22.504;2023-11-21T02:39:34;18.38;;;6.53;;
32946;SDS011;54465;51.230;22.504;2023-11-21T02:44:34;46.22;;;8.43;;
32946;SDS011;54465;51.230;22.504;2023-11-21T02:49:35;58.35;;;9.70;;
32946;SDS011;54465;51.230;22.504;2023-11-21T02:54:36;38.80;;;8.32;;
32946;SDS011;54465;51.230;22.504;2023-11-21T02:59:36;30.35;;;7.97;;
32946;SDS011;54465;51.230;22.504;2023-11-21T03:04:37;19.90;;;7.63;;
32946;SDS011;54465;51.230;22.504;2023-11-21T03:09:38;22.27;;;7.40;;
32946;SDS011;54465;51.230;22.504;2023-11-21T03:14:39;27.17;;;8.32;;
32946;SDS011;54465;51.230;22.504;2023-11-21T03:19:43;49.92;;;8.45;;
32946;SDS011;54465;51.230;22.504;2023-11-21T03:24:43;34.72;;;8.00;;
32946;SDS011;54465;51.230;22.504;2023-11-21T03:29:44;12.60;;;7.00;;
32946;SDS011;54465;51.230;22.504;2023-11-21T03:34:56;31.38;;;7.75;;
32946;SDS011;54465;51.230;22.504;2023-11-21T03:39:58;34.25;;;8.50;;
32946;SDS011;54465;51.230;22.504;2023-11-21T03:44:58;24.88;;;6.78;;
32946;SDS011;54465;51.230;22.504;2023-11-21T03:49:59;12.10;;;6.75;;
32946;SDS011;54465;51.230;22.504;2023-11-21T03:55:00;26.30;;;7.03;;
32946;SDS011;54465;51.230;22.504;2023-11-21T04:00:01;23.38;;;7.22;;
32946;SDS011;54465;51.230;22.504;2023-11-21T04:05:12;28.67;;;6.40;;
32946;SDS011;54465;51.230;22.504;2023-11-21T04:10:13;13.52;;;6.07;;
32946;SDS011;54465;51.230;22.504;2023-11-21T04:15:13;19.95;;;6.43;;
32946;SDS011;54465;51.230;22.504;2023-11-21T04:20:16;14.02;;;5.85;;
32946;SDS011;54465;51.230;22.504;2023-11-21T04:25:16;17.63;;;6.78;;
32946;SDS011;54465;51.230;22.504;2023-11-21T04:30:17;11.48;;;5.65;;
32946;SDS011;54465;51.230;22.504;2023-11-21T04:35:18;17.80;;;6.15;;
32946;SDS011;54465;51.230;22.504;2023-11-21T04:40:18;21.95;;;5.97;;
32946;SDS011;54465;51.230;22.504;2023-11-21T04:45:21;20.08;;;7.35;;
32946;SDS011;54465;51.230;22.504;2023-11-21T04:50:21;21.30;;;7.68;;
32946;SDS011;54465;51.230;22.504;2023-11-21T04:55:22;12.15;;;7.55;;
32946;SDS011;54465;51.230;22.504;2023-11-21T05:00:22;25.55;;;9.00;;
32946;SDS011;54465;51.230;22.504;2023-11-21T05:05:24;19.98;;;7.15;;
32946;SDS011;54465;51.230;22.504;2023-11-21T05:10:24;17.98;;;8.30;;
32946;SDS011;54465;51.230;22.504;2023-11-21T05:15:25;17.17;;;7.38;;
32946;SDS011;54465;51.230;22.504;2023-11-21T05:20:28;34.38;;;7.38;;
32946;SDS011;54465;51.230;22.504;2023-11-21T05:25:28;19.10;;;7.10;;
32946;SDS011;54465;51.230;22.504;2023-11-21T05:30:29;17.70;;;6.85;;
32946;SDS011;54465;51.230;22.504;2023-11-21T05:35:30;12.80;;;5.78;;
32946;SDS011;54465;51.230;22.504;2023-11-21T05:40:31;11.15;;;5.30;;
32946;SDS011;54465;51.230;22.504;2023-11-21T05:45:31;11.65;;;4.78;;
32946;SDS011;54465;51.230;22.504;2023-11-21T05:50:32;12.27;;;5.53;;
32946;SDS011;54465;51.230;22.504;2023-11-21T05:55:32;14.23;;;5.80;;
32946;SDS011;54465;51.230;22.504;2023-11-21T06:00:33;10.13;;;5.97;;
32946;SDS011;54465;51.230;22.504;2023-11-21T06:05:34;10.93;;;5.88;;
32946;SDS011;54465;51.230;22.504;2023-11-21T06:10:35;12.70;;;6.45;;
32946;SDS011;54465;51.230;22.504;2023-11-21T06:15:35;13.85;;;6.63;;
32946;SDS011;54465;51.230;22.504;2023-11-21T06:20:38;11.90;;;6.32;;
32946;SDS011;54465;51.230;22.504;2023-11-21T06:25:39;11.60;;;6.78;;
32946;SDS011;54465;51.230;22.504;2023-11-21T06:30:40;9.07;;;5.65;;
32946;SDS011;54465;51.230;22.504;2023-11-21T06:35:47;9.75;;;6.03;;
32946;SDS011;54465;51.230;22.504;2023-11-21T06:40:49;14.73;;;8.20;;
32946;SDS011;54465;51.230;22.504;2023-11-21T06:45:50;9.68;;;5.40;;
32946;SDS011;54465;51.230;22.504;2023-11-21T06:50:51;9.18;;;5.75;;
32946;SDS011;54465;51.230;22.504;2023-11-21T06:55:52;9.82;;;5.72;;
32946;SDS011;54465;51.230;22.504;2023-11-21T07:00:53;9.30;;;5.60;;
32946;SDS011;54465;51.230;22.504;2023-11-21T07:05:54;10.98;;;5.43;;
32946;SDS011;54465;51.230;22.504;2023-11-21T07:10:54;10.50;;;6.07;;
32946;SDS011;54465;51.230;22.504;2023-11-21T07:15:55;10.13;;;5.90;;
32946;SDS011;54465;51.230;22.504;2023-11-21T07:20:58;10.18;;;6.45;;
32946;SDS011;54465;51.230;22.504;2023-11-21T07:25:59;9.38;;;6.07;;
32946;SDS011;54465;51.230;22.504;2023-11-21T07:31:00;8.88;;;5.70;;
32946;SDS011;54465;51.230;22.504;2023-11-21T07:36:01;11.88;;;6.80;;
32946;SDS011;54465;51.230;22.504;2023-11-21T07:41:01;10.15;;;5.63;;
32946;SDS011;54465;51.230;22.504;2023-11-21T07:46:04;10.43;;;6.28;;
32946;SDS011;54465;51.230;22.504;2023-11-21T07:51:05;10.85;;;6.45;;
32946;SDS011;54465;51.230;22.504;2023-11-21T07:56:09;9.95;;;6.03;;
32946;SDS011;54465;51.230;22.504;2023-11-21T08:01:10;12.25;;;5.97;;
32946;SDS011;54465;51.230;22.504;2023-11-21T08:06:12;10.68;;;6.35;;
32946;SDS011;54465;51.230;22.504;2023-11-21T08:11:15;9.88;;;6.15;;
32946;SDS011;54465;51.230;22.504;2023-11-21T08:16:15;8.93;;;5.50;;
32946;SDS011;54465;51.230;22.504;2023-11-21T08:21:19;9.75;;;6.32;;
32946;SDS011;54465;51.230;22.504;2023-11-21T08:26:23;10.25;;;6.82;;
32946;SDS011;54465;51.230;22.504;2023-11-21T08:31:25;8.98;;;5.70;;
32946;SDS011;54465;51.230;22.504;2023-11-21T08:36:26;9.10;;;6.22;;
32946;SDS011;54465;51.230;22.504;2023-11-21T08:41:27;9.90;;;6.10;;
32946;SDS011;54465;51.230;22.504;2023-11-21T08:46:29;11.63;;;6.88;;
32946;SDS011;54465;51.230;22.504;2023-11-21T08:51:30;15.65;;;7.85;;
32946;SDS011;54465;51.230;22.504;2023-11-21T08:56:32;11.27;;;7.32;;
32946;SDS011;54465;51.230;22.504;2023-11-21T09:01:34;14.10;;;8.05;;
32946;SDS011;54465;51.230;22.504;2023-11-21T09:06:42;11.10;;;7.10;;
32946;SDS011;54465;51.230;22.504;2023-11-21T09:11:43;11.93;;;7.10;;
32946;SDS011;54465;51.230;22.504;2023-11-21T09:16:45;9.73;;;6.63;;
32946;SDS011;54465;51.230;22.504;2023-11-21T09:21:51;12.02;;;7.03;;
32946;SDS011;54465;51.230;22.504;2023-11-21T09:26:54;12.32;;;6.95;;
32946;SDS011;54465;51.230;22.504;2023-11-21T09:31:55;13.48;;;7.10;;
32946;SDS011;54465;51.230;22.504;2023-11-21T09:36:56;11.25;;;7.40;;
32946;SDS011;54465;51.230;22.504;2023-11-21T09:41:59;11.85;;;7.57;;
32946;SDS011;54465;51.230;22.504;2023-11-21T09:47:13;10.15;;;6.93;;
32946;SDS011;54465;51.230;22.504;2023-11-21T09:52:26;9.85;;;6.63;;
32946;SDS011;54465;51.230;22.504;2023-11-21T09:57:29;9.98;;;6.93;;
32946;SDS011;54465;51.230;22.504;2023-11-21T10:02:30;10.40;;;6.35;;
32946;SDS011;54465;51.230;22.504;2023-11-21T10:07:38;9.88;;;7.38;;
32946;SDS011;54465;51.230;22.504;2023-11-21T10:12:39;8.75;;;6.00;;
32946;SDS011;54465;51.230;22.504;2023-11-21T10:17:44;12.57;;;7.75;;
32946;SDS011;54465;51.230;22.504;2023-11-21T10:22:45;12.73;;;8.00;;
32946;SDS011;54465;51.230;22.504;2023-11-21T10:27:47;13.65;;;8.93;;
32946;SDS011;54465;51.230;22.504;2023-11-21T10:32:51;14.60;;;8.70;;
32946;SDS011;54465;51.230;22.504;2023-11-21T10:38:00;14.23;;;8.90;;
32946;SDS011;54465;51.230;22.504;2023-11-21T10:43:06;13.18;;;7.75;;
32946;SDS011;54465;51.230;22.504;2023-11-21T10:48:10;13.88;;;8.60;;
32946;SDS011;54465;51.230;22.504;2023-11-21T10:53:17;17.77;;;8.77;;
32946;SDS011;54465;51.230;22.504;2023-11-21T10:58:20;14.43;;;8.10;;
32946;SDS011;54465;51.230;22.504;2023-11-21T11:03:21;10.32;;;7.40;;
32946;SDS011;54465;51.230;22.504;2023-11-21T11:08:23;12.38;;;7.55;;
32946;SDS011;54465;51.230;22.504;2023-11-21T11:13:28;15.07;;;8.32;;
32946;SDS011;54465;51.230;22.504;2023-11-21T11:18:30;12.45;;;7.40;;
32946;SDS011;54465;51.230;22.504;2023-11-21T11:23:44;9.50;;;6.85;;
32946;SDS011;54465;51.230;22.504;2023-11-21T11:34:38;11.50;;;7.72;;
32946;SDS011;54465;51.230;22.504;2023-11-21T11:39:51;11.13;;;7.95;;
32946;SDS011;54465;51.230;22.504;2023-11-21T11:44:55;17.38;;;8.57;;
32946;SDS011;54465;51.230;22.504;2023-11-21T11:50:08;15.70;;;8.85;;
32946;SDS011;54465;51.230;22.504;2023-11-21T11:55:22;12.43;;;8.27;;
32946;SDS011;54465;51.230;22.504;2023-11-21T12:05:30;14.52;;;7.95;;
32946;SDS011;54465;51.230;22.504;2023-11-21T12:10:44;16.38;;;8.20;;
32946;SDS011;54465;51.230;22.504;2023-11-21T12:15:46;13.25;;;8.52;;
32946;SDS011;54465;51.230;22.504;2023-11-21T12:20:47;13.50;;;7.65;;
32946;SDS011;54465;51.230;22.504;2023-11-21T12:25:52;11.30;;;7.72;;
32946;SDS011;54465;51.230;22.504;2023-11-21T12:30:54;18.17;;;8.05;;
32946;SDS011;54465;51.230;22.504;2023-11-21T12:35:55;12.57;;;7.03;;
32946;SDS011;54465;51.230;22.504;2023-11-21T12:40:59;11.73;;;8.65;;
32946;SDS011;54465;51.230;22.504;2023-11-21T12:46:09;12.98;;;7.22;;
32946;SDS011;54465;51.230;22.504;2023-11-21T12:51:12;13.88;;;8.60;;
32946;SDS011;54465;51.230;22.504;2023-11-21T12:56:18;14.88;;;8.98;;
32946;SDS011;54465;51.230;22.504;2023-11-21T13:01:21;20.02;;;10.60;;
32946;SDS011;54465;51.230;22.504;2023-11-21T13:06:32;21.52;;;10.95;;
32946;SDS011;54465;51.230;22.504;2023-11-21T13:16:44;15.05;;;9.40;;
32946;SDS011;54465;51.230;22.504;2023-11-21T13:21:48;17.13;;;10.15;;
32946;SDS011;54465;51.230;22.504;2023-11-21T13:26:50;20.25;;;10.70;;
32946;SDS011;54465;51.230;22.504;2023-11-21T13:31:52;15.73;;;9.95;;
32946;SDS011;54465;51.230;22.504;2023-11-21T13:36:53;15.93;;;9.13;;
32946;SDS011;54465;51.230;22.504;2023-11-21T13:42:00;11.82;;;7.43;;
32946;SDS011;54465;51.230;22.504;2023-11-21T13:47:00;13.13;;;8.40;;
32946;SDS011;54465;51.230;22.504;2023-11-21T13:52:02;18.10;;;9.25;;
32946;SDS011;54465;51.230;22.504;2023-11-21T13:57:03;20.63;;;9.90;;
32946;SDS011;54465;51.230;22.504;2023-11-21T14:02:09;14.55;;;8.82;;
32946;SDS011;54465;51.230;22.504;2023-11-21T14:07:33;11.75;;;7.88;;
32946;SDS011;54465;51.230;22.504;2023-11-21T14:12:36;16.50;;;7.55;;
32946;SDS011;54465;51.230;22.504;2023-11-21T14:17:40;11.50;;;6.65;;
32946;SDS011;54465;51.230;22.504;2023-11-21T14:22:42;11.45;;;6.72;;
32946;SDS011;54465;51.230;22.504;2023-11-21T14:27:46;6.90;;;5.10;;
32946;SDS011;54465;51.230;22.504;2023-11-21T14:32:48;9.50;;;5.63;;
32946;SDS011;54465;51.230;22.504;2023-11-21T14:37:49;9.57;;;5.97;;
32946;SDS011;54465;51.230;22.504;2023-11-21T14:42:51;8.20;;;5.13;;
32946;SDS011;54465;51.230;22.504;2023-11-21T14:47:53;9.57;;;5.88;;
32946;SDS011;54465;51.230;22.504;2023-11-21T14:53:07;9.68;;;5.97;;
32946;SDS011;54465;51.230;22.504;2023-11-21T14:58:09;9.30;;;5.97;;
32946;SDS011;54465;51.230;22.504;2023-11-21T15:03:13;8.38;;;5.93;;
32946;SDS011;54465;51.230;22.504;2023-11-21T15:08:36;10.10;;;6.55;;
32946;SDS011;54465;51.230;22.504;2023-11-21T15:13:37;10.05;;;7.25;;
32946;SDS011;54465;51.230;22.504;2023-11-21T15:18:39;9.25;;;6.10;;
32946;SDS011;54465;51.230;22.504;2023-11-21T15:23:39;11.20;;;7.20;;
32946;SDS011;54465;51.230;22.504;2023-11-21T15:28:45;10.38;;;5.95;;
32946;SDS011;54465;51.230;22.504;2023-11-21T15:33:46;8.02;;;5.55;;
32946;SDS011;54465;51.230;22.504;2023-11-21T15:38:47;7.97;;;5.28;;
32946;SDS011;54465;51.230;22.504;2023-11-21T15:43:48;9.10;;;5.85;;
32946;SDS011;54465;51.230;22.504;2023-11-21T15:48:51;8.88;;;6.10;;
32946;SDS011;54465;51.230;22.504;2023-11-21T15:53:54;9.68;;;6.63;;
32946;SDS011;54465;51.230;22.504;2023-11-21T15:58:56;12.00;;;7.20;;
32946;SDS011;54465;51.230;22.504;2023-11-21T16:03:58;11.65;;;7.35;;
32946;SDS011;54465;51.230;22.504;2023-11-21T16:09:01;12.05;;;7.95;;
32946;SDS011;54465;51.230;22.504;2023-11-21T16:14:02;13.52;;;7.85;;
32946;SDS011;54465;51.230;22.504;2023-11-21T16:19:03;13.02;;;8.45;;
32946;SDS011;54465;51.230;22.504;2023-11-21T16:24:05;15.27;;;9.80;;
32946;SDS011;54465;51.230;22.504;2023-11-21T16:29:11;16.50;;;11.05;;
32946;SDS011;54465;51.230;22.504;2023-11-21T16:34:13;17.73;;;10.13;;
32946;SDS011;54465;51.230;22.504;2023-11-21T16:39:23;16.60;;;9.80;;
32946;SDS011;54465;51.230;22.504;2023-11-21T16:44:24;18.45;;;9.80;;
32946;SDS011;54465;51.230;22.504;2023-11-21T16:49:25;17.27;;;9.18;;
32946;SDS011;54465;51.230;22.504;2023-11-21T16:54:27;13.27;;;8.30;;
32946;SDS011;54465;51.230;22.504;2023-11-21T16:59:29;15.63;;;9.07;;
32946;SDS011;54465;51.230;22.504;2023-11-21T17:04:30;14.27;;;8.80;;
32946;SDS011;54465;51.230;22.504;2023-11-21T17:09:32;17.52;;;8.70;;
32946;SDS011;54465;51.230;22.504;2023-11-21T17:14:34;14.48;;;8.70;;
32946;SDS011;54465;51.230;22.504;2023-11-21T17:19:34;15.00;;;9.13;;
32946;SDS011;54465;51.230;22.504;2023-11-21T17:24:36;11.50;;;7.63;;
32946;SDS011;54465;51.230;22.504;2023-11-21T17:29:38;13.32;;;8.52;;
32946;SDS011;54465;51.230;22.504;2023-11-21T17:34:40;12.90;;;8.13;;
32946;SDS011;54465;51.230;22.504;2023-11-21T17:39:41;14.85;;;7.78;;
32946;SDS011;54465;51.230;22.504;2023-11-21T17:44:41;14.82;;;8.70;;
32946;SDS011;54465;51.230;22.504;2023-11-21T17:49:42;12.13;;;8.23;;
32946;SDS011;54465;51.230;22.504;2023-11-21T17:54:43;13.75;;;8.88;;
32946;SDS011;54465;51.230;22.504;2023-11-21T17:59:44;11.88;;;7.15;;
32946;SDS011;54465;51.230;22.504;2023-11-21T18:04:48;11.32;;;7.47;;
32946;SDS011;54465;51.230;22.504;2023-11-21T18:09:48;9.85;;;6.28;;
32946;SDS011;54465;51.230;22.504;2023-11-21T18:14:50;11.55;;;7.13;;
32946;SDS011;54465;51.230;22.504;2023-11-21T18:19:52;11.38;;;6.40;;
32946;SDS011;54465;51.230;22.504;2023-11-21T18:24:55;12.20;;;6.93;;
32946;SDS011;54465;51.230;22.504;2023-11-21T18:29:56;10.98;;;7.20;;
32946;SDS011;54465;51.230;22.504;2023-11-21T18:35:00;11.25;;;7.28;;
32946;SDS011;54465;51.230;22.504;2023-11-21T18:40:01;10.13;;;6.80;;
32946;SDS011;54465;51.230;22.504;2023-11-21T18:45:01;8.73;;;6.55;;
32946;SDS011;54465;51.230;22.504;2023-11-21T18:50:03;10.23;;;6.35;;
32946;SDS011;54465;51.230;22.504;2023-11-21T18:55:04;8.48;;;6.25;;
32946;SDS011;54465;51.230;22.504;2023-11-21T19:00:05;10.60;;;6.40;;
32946;SDS011;54465;51.230;22.504;2023-11-21T19:05:10;10.63;;;6.80;;
32946;SDS011;54465;51.230;22.504;2023-11-21T19:10:12;9.32;;;5.82;;
32946;SDS011;54465;51.230;22.504;2023-11-21T19:15:13;12.25;;;6.95;;
32946;SDS011;54465;51.230;22.504;2023-11-21T19:20:13;10.18;;;6.57;;
32946;SDS011;54465;51.230;22.504;2023-11-21T19:25:14;12.73;;;7.35;;
32946;SDS011;54465;51.230;22.504;2023-11-21T19:30:16;9.45;;;6.53;;
32946;SDS011;54465;51.230;22.504;2023-11-21T19:35:17;10.43;;;7.10;;
32946;SDS011;54465;51.230;22.504;2023-11-21T19:40:19;8.95;;;5.88;;
32946;SDS011;54465;51.230;22.504;2023-11-21T19:45:23;7.82;;;5.70;;
32946;SDS011;54465;51.230;22.504;2023-11-21T19:50:26;9.30;;;6.93;;
32946;SDS011;54465;51.230;22.504;2023-11-21T19:55:27;9.45;;;6.00;;
32946;SDS011;54465;51.230;22.504;2023-11-21T20:00:28;11.10;;;6.40;;
32946;SDS011;54465;51.230;22.504;2023-11-21T20:05:29;9.93;;;6.50;;
32946;SDS011;54465;51.230;22.504;2023-11-21T20:10:31;9.38;;;6.55;;
32946;SDS011;54465;51.230;22.504;2023-11-21T20:15:32;10.88;;;6.03;;
32946;SDS011;54465;51.230;22.504;2023-11-21T20:20:34;9.25;;;6.28;;
32946;SDS011;54465;51.230;22.504;2023-11-21T20:25:36;8.18;;;5.95;;
32946;SDS011;54465;51.230;22.504;2023-11-21T20:30:37;10.82;;;6.15;;
32946;SDS011;54465;51.230;22.504;2023-11-21T20:35:38;14.00;;;6.78;;
32946;SDS011;54465;51.230;22.504;2023-11-21T20:40:41;10.27;;;6.78;;
32946;SDS011;54465;51.230;22.504;2023-11-21T20:45:41;10.18;;;6.13;;
32946;SDS011;54465;51.230;22.504;2023-11-21T20:50:43;11.85;;;6.80;;
32946;SDS011;54465;51.230;22.504;2023-11-21T20:55:44;9.02;;;5.68;;
32946;SDS011;54465;51.230;22.504;2023-11-21T21:00:49;10.50;;;5.65;;
32946;SDS011;54465;51.230;22.504;2023-11-21T21:05:49;8.38;;;5.05;;
32946;SDS011;54465;51.230;22.504;2023-11-21T21:10:50;8.20;;;5.25;;
32946;SDS011;54465;51.230;22.504;2023-11-21T21:15:53;9.82;;;6.20;;
32946;SDS011;54465;51.230;22.504;2023-11-21T21:20:53;8.30;;;5.30;;
32946;SDS011;54465;51.230;22.504;2023-11-21T21:25:54;8.95;;;5.53;;
32946;SDS011;54465;51.230;22.504;2023-11-21T21:30:57;8.43;;;5.63;;
32946;SDS011;54465;51.230;22.504;2023-11-21T21:36:00;9.50;;;6.07;;
32946;SDS011;54465;51.230;22.504;2023-11-21T21:41:01;10.25;;;5.95;;
32946;SDS011;54465;51.230;22.504;2023-11-21T21:46:02;8.45;;;5.43;;
32946;SDS011;54465;51.230;22.504;2023-11-21T21:51:03;9.50;;;5.25;;
32946;SDS011;54465;51.230;22.504;2023-11-21T21:56:04;8.23;;;4.55;;
32946;SDS011;54465;51.230;22.504;2023-11-21T22:01:05;9.15;;;5.18;;
32946;SDS011;54465;51.230;22.504;2023-11-21T22:06:06;7.97;;;4.68;;
32946;SDS011;54465;51.230;22.504;2023-11-21T22:11:06;7.03;;;5.07;;
32946;SDS011;54465;51.230;22.504;2023-11-21T22:16:07;8.40;;;4.93;;
32946;SDS011;54465;51.230;22.504;2023-11-21T22:21:12;7.70;;;5.07;;
32946;SDS011;54465;51.230;22.504;2023-11-21T22:26:14;8.77;;;5.07;;
32946;SDS011;54465;51.230;22.504;2023-11-21T22:31:21;9.33;;;5.50;;
32946;SDS011;54465;51.230;22.504;2023-11-21T22:36:21;9.35;;;5.55;;
32946;SDS011;54465;51.230;22.504;2023-11-21T22:41:23;9.20;;;4.97;;
32946;SDS011;54465;51.230;22.504;2023-11-21T22:46:25;9.18;;;5.38;;
32946;SDS011;54465;51.230;22.504;2023-11-21T22:51:26;8.70;;;5.90;;
32946;SDS011;54465;51.230;22.504;2023-11-21T22:56:26;10.60;;;5.90;;
32946;SDS011;54465;51.230;22.504;2023-11-21T23:01:27;9.82;;;5.03;;
32946;SDS011;54465;51.230;22.504;2023-11-21T23:06:27;11.45;;;5.93;;
32946;SDS011;54465;51.230;22.504;2023-11-21T23:11:29;9.75;;;5.85;;
32946;SDS011;54465;51.230;22.504;2023-11-21T23:16:29;10.05;;;6.00;;
32946;SDS011;54465;51.230;22.504;2023-11-21T23:21:30;10.50;;;5.93;;
32946;SDS011;54465;51.230;22.504;2023-11-21T23:26:32;11.90;;;6.22;;
32946;SDS011;54465;51.230;22.504;2023-11-21T23:31:33;12.63;;;7.50;;
32946;SDS011;54465;51.230;22.504;2023-11-21T23:36:33;13.48;;;7.35;;
32946;SDS011;54465;51.230;22.504;2023-11-21T23:41:34;11.35;;;7.05;;
32946;SDS011;54465;51.230;22.504;2023-11-21T23:46:35;10.10;;;6.50;;
32946;SDS011;54465;51.230;22.504;2023-11-21T23:51:35;11.80;;;6.93;;
32946;SDS011;54465;51.230;22.504;2023-11-21T23:56:36;11.60;;;6.40;;
